Time;durP1;ratioP1;P1;durP2;ratioP2;P2;SDS_P1;SDS_P2;PMS_P1;PMS_P2;Temp;Humidity;BMP_temperature;BMP_pressure;BME280_temperature;BME280_humidity;BME280_pressure;Samples;Min_cycle;Max_cycle;Signal;HPM_P1;HPM_P2
2023/03/21 00:00:32;;;;;;;12.10;6.45;;;;;;;8.66;100.00;100809.94;5126731;28;20058;-72
2023/03/21 00:03:02;;;;;;;10.60;6.60;;;;;;;8.73;100.00;100797.63;5118592;29;20075;-71
2023/03/21 00:05:33;;;;;;;11.98;6.55;;;;;;;8.72;100.00;100807.19;5107239;28;20208;-73
2023/03/21 00:08:03;;;;;;;10.77;7.22;;;;;;;8.74;100.00;100800.19;5118867;28;20029;-71
2023/03/21 00:10:34;;;;;;;11.63;6.90;;;;;;;8.65;100.00;100795.22;5115403;28;20055;-71
2023/03/21 00:13:04;;;;;;;11.93;6.68;;;;;;;8.66;100.00;100798.66;5119071;28;20025;-72
2023/03/21 00:15:49;;;;;;;12.23;7.13;;;;;;;8.75;100.00;100801.88;5120521;28;20466;-72
2023/03/21 00:18:24;;;;;;;12.82;7.03;;;;;;;8.72;100.00;100791.56;5124688;28;20054;-73
2023/03/21 00:21:00;;;;;;;14.43;8.10;;;;;;;8.72;100.00;100795.94;5112018;29;20085;-72
2023/03/21 00:23:32;;;;;;;11.55;7.07;;;;;;;8.69;100.00;100790.78;5117912;29;20063;-72
2023/03/21 00:26:02;;;;;;;11.70;7.30;;;;;;;8.64;100.00;100795.22;5120785;28;20454;-74
2023/03/21 00:28:32;;;;;;;15.00;7.95;;;;;;;8.58;100.00;100798.84;5120436;28;20114;-72
2023/03/21 00:31:03;;;;;;;14.45;7.07;;;;;;;8.68;100.00;100800.34;5111776;29;20109;-73
2023/03/21 00:33:34;;;;;;;19.92;8.00;;;;;;;8.52;100.00;100798.16;5131218;28;20027;-72
2023/03/21 00:36:07;;;;;;;14.07;7.38;;;;;;;8.66;100.00;100793.44;5120363;28;20358;-73
2023/03/21 00:38:37;;;;;;;11.07;6.97;;;;;;;8.57;100.00;100791.91;5130414;28;20031;-72
2023/03/21 00:41:09;;;;;;;12.88;7.82;;;;;;;8.55;100.00;100798.09;5137889;28;20050;-73
2023/03/21 00:43:40;;;;;;;14.73;8.00;;;;;;;8.44;100.00;100787.91;5138157;28;20035;-73
2023/03/21 00:46:11;;;;;;;16.20;8.35;;;;;;;8.48;100.00;100786.94;5119395;28;20023;-71
2023/03/21 00:48:41;;;;;;;14.15;8.27;;;;;;;8.38;100.00;100780.22;5124798;28;20126;-72
2023/03/21 00:51:24;;;;;;;12.45;7.93;;;;;;;8.43;100.00;100778.41;5129253;28;20501;-71
2023/03/21 00:53:56;;;;;;;15.07;7.88;;;;;;;8.48;100.00;100784.34;5120476;28;20087;-72
2023/03/21 00:56:27;;;;;;;18.08;8.98;;;;;;;8.60;100.00;100772.78;5123196;28;20024;-72
2023/03/21 00:58:57;;;;;;;17.65;8.93;;;;;;;8.50;100.00;100761.72;5130365;28;20520;-72
2023/03/21 01:01:30;;;;;;;18.08;8.70;;;;;;;8.43;100.00;100762.78;5131687;28;20037;-71
2023/03/21 01:04:06;;;;;;;15.23;8.15;;;;;;;8.54;100.00;100771.16;5125925;28;20528;-72
2023/03/21 01:06:40;;;;;;;16.35;8.60;;;;;;;8.46;100.00;100772.22;5118768;28;20490;-73
2023/03/21 01:09:19;;;;;;;15.60;8.13;;;;;;;8.46;100.00;100762.69;5104181;28;20020;-71
2023/03/21 01:11:50;;;;;;;12.90;7.90;;;;;;;8.48;100.00;100760.91;5123307;28;20031;-72
2023/03/21 01:14:22;;;;;;;13.15;8.02;;;;;;;8.64;100.00;100758.75;5117857;28;20094;-72
2023/03/21 01:16:53;;;;;;;21.08;8.48;;;;;;;8.55;100.00;100757.25;5120160;28;20130;-72
2023/03/21 01:19:27;;;;;;;16.20;8.90;;;;;;;8.43;100.00;100752.34;5104408;28;20121;-72
2023/03/21 01:21:58;;;;;;;18.10;8.73;;;;;;;8.34;100.00;100751.69;5117891;28;20180;-71
2023/03/21 01:24:29;;;;;;;17.27;9.20;;;;;;;8.42;100.00;100749.78;5118912;28;20027;-70
2023/03/21 01:27:01;;;;;;;14.80;8.13;;;;;;;8.49;100.00;100752.19;5127202;28;20473;-72
2023/03/21 01:29:31;;;;;;;16.02;9.05;;;;;;;8.60;100.00;100749.31;5114446;28;20496;-72
2023/03/21 01:32:01;;;;;;;16.33;8.98;;;;;;;8.60;100.00;100746.72;5147431;23;20050;-76
2023/03/21 01:34:32;;;;;;;15.63;8.50;;;;;;;8.55;100.00;100746.81;5114139;29;20102;-76
2023/03/21 01:37:02;;;;;;;18.42;7.95;;;;;;;8.43;100.00;100744.53;5094716;29;20529;-77
2023/03/21 01:39:34;;;;;;;20.63;9.38;;;;;;;8.41;100.00;100746.28;5090771;29;20032;-76
2023/03/21 01:42:04;;;;;;;19.15;8.90;;;;;;;8.55;100.00;100756.41;5106134;29;20028;-77
2023/03/21 01:44:57;;;;;;;18.02;9.25;;;;;;;8.51;100.00;100747.81;5112172;29;20040;-76
2023/03/21 01:47:27;;;;;;;13.90;8.52;;;;;;;8.49;100.00;100746.13;5108197;29;20019;-76
2023/03/21 01:50:02;;;;;;;16.77;8.95;;;;;;;8.50;100.00;100748.69;5102519;29;20038;-76
2023/03/21 01:52:37;;;;;;;16.02;8.23;;;;;;;8.52;100.00;100735.66;5101973;29;20154;-76
2023/03/21 01:55:11;;;;;;;15.73;8.63;;;;;;;8.52;100.00;100738.25;5107246;29;20078;-76
2023/03/21 01:57:48;;;;;;;14.95;7.93;;;;;;;8.57;100.00;100736.38;5101725;29;20023;-76
2023/03/21 02:00:23;;;;;;;16.48;7.88;;;;;;;8.52;100.00;100733.88;5100436;29;20027;-76
2023/03/21 02:02:54;;;;;;;13.60;7.53;;;;;;;8.51;100.00;100734.78;5101324;29;20047;-77
2023/03/21 02:05:36;;;;;;;15.50;8.60;;;;;;;8.53;100.00;100727.78;5102186;29;20040;-76
2023/03/21 02:08:07;;;;;;;13.93;7.95;;;;;;;8.49;100.00;100726.16;5102277;29;20027;-76
2023/03/21 02:10:38;;;;;;;14.27;8.13;;;;;;;8.34;100.00;100730.84;5109458;29;20027;-76
2023/03/21 02:13:09;;;;;;;15.20;7.88;;;;;;;8.43;100.00;100725.44;5115970;29;20481;-76
2023/03/21 02:15:46;;;;;;;12.90;7.70;;;;;;;8.53;100.00;100724.34;5118005;29;20077;-76
2023/03/21 02:18:19;;;;;;;12.15;7.80;;;;;;;8.46;100.00;100723.63;5102202;29;20030;-76
2023/03/21 02:21:26;;;;;;;15.02;7.60;;;;;;;8.47;100.00;100714.91;5095780;29;20109;-76
2023/03/21 02:24:18;;;;;;;14.77;6.88;;;;;;;8.57;100.00;100718.97;5099300;29;20028;-77
2023/03/21 02:27:20;;;;;;;14.05;7.53;;;;;;;8.49;100.00;100714.84;5084540;29;20092;-76
2023/03/21 02:29:54;;;;;;;13.80;7.60;;;;;;;8.34;100.00;100704.81;5100515;29;20039;-77
2023/03/21 02:32:39;;;;;;;15.48;6.60;;;;;;;8.53;100.00;100709.53;5108756;29;20529;-77
2023/03/21 02:35:32;;;;;;;11.75;6.85;;;;;;;8.43;100.00;100705.47;5086493;29;20039;-77
2023/03/21 02:38:14;;;;;;;13.65;7.18;;;;;;;8.67;100.00;100703.97;5101669;29;20553;-76
2023/03/21 02:40:49;;;;;;;11.50;6.80;;;;;;;8.67;100.00;100701.38;5102012;29;20031;-76
2023/03/21 02:43:42;;;;;;;12.03;7.27;;;;;;;8.54;100.00;100703.44;5111524;29;20281;-77
2023/03/21 02:46:17;;;;;;;14.15;6.95;;;;;;;8.64;100.00;100701.44;5105692;29;20374;-76
2023/03/21 02:49:06;;;;;;;12.18;6.75;;;;;;;8.50;100.00;100696.59;5101273;29;20410;-76
2023/03/21 02:51:40;;;;;;;13.90;7.20;;;;;;;8.53;100.00;100700.88;5100866;28;20043;-76
2023/03/21 02:54:32;;;;;;;13.80;7.13;;;;;;;8.43;100.00;100696.78;5101236;29;20383;-76
2023/03/21 02:57:03;;;;;;;12.63;7.25;;;;;;;8.44;100.00;100701.97;5101466;29;20562;-77
2023/03/21 02:59:36;;;;;;;13.70;7.30;;;;;;;8.41;100.00;100695.97;5101613;29;20110;-76
2023/03/21 03:02:06;;;;;;;14.23;7.07;;;;;;;8.64;100.00;100689.31;5107356;29;20027;-76
2023/03/21 03:04:36;;;;;;;14.23;7.85;;;;;;;8.42;100.00;100692.47;5106334;29;20046;-77
2023/03/21 03:07:42;;;;;;;16.35;8.52;;;;;;;8.56;100.00;100690.38;5102123;29;20170;-76
2023/03/21 03:10:15;;;;;;;15.85;8.45;;;;;;;8.57;100.00;100692.09;5101629;29;20046;-76
2023/03/21 03:13:02;;;;;;;14.40;7.72;;;;;;;8.73;100.00;100689.03;5113164;29;20103;-76
2023/03/21 03:15:44;;;;;;;14.82;7.22;;;;;;;8.67;100.00;100688.34;5119714;29;20023;-77
2023/03/21 03:18:30;;;;;;;16.42;7.40;;;;;;;8.66;100.00;100682.28;5095624;29;20067;-76
2023/03/21 03:21:35;;;;;;;17.63;7.25;;;;;;;8.66;100.00;100682.28;5099963;29;20029;-76
2023/03/21 03:24:12;;;;;;;16.50;7.63;;;;;;;8.55;100.00;100689.53;5081268;29;20051;-77
2023/03/21 03:26:53;;;;;;;18.67;8.52;;;;;;;8.77;100.00;100685.50;5105475;29;20121;-76
2023/03/21 03:29:26;;;;;;;14.43;7.70;;;;;;;8.76;100.00;100680.31;5105185;29;20063;-76
2023/03/21 03:32:08;;;;;;;13.60;7.10;;;;;;;8.59;100.00;100678.13;5104898;29;20023;-76
2023/03/21 03:34:43;;;;;;;15.85;8.10;;;;;;;8.76;100.00;100678.53;5105512;29;20034;-76
2023/03/21 03:37:16;;;;;;;14.52;7.60;;;;;;;8.73;100.00;100678.63;5104935;29;20172;-74
2023/03/21 03:39:50;;;;;;;18.35;8.38;;;;;;;8.59;100.00;100685.94;5105448;29;20031;-77
2023/03/21 03:42:27;;;;;;;16.23;8.40;;;;;;;8.70;100.00;100677.88;5092551;29;20103;-77
2023/03/21 03:44:57;;;;;;;15.57;7.80;;;;;;;8.58;100.00;100680.78;5104717;29;20028;-76
2023/03/21 03:47:36;;;;;;;14.43;7.70;;;;;;;8.64;100.00;100672.78;5103491;29;20034;-76
2023/03/21 03:50:21;;;;;;;17.70;7.70;;;;;;;8.71;100.00;100683.03;5104424;29;20039;-77
2023/03/21 03:52:56;;;;;;;16.37;8.13;;;;;;;8.60;100.00;100676.38;5107489;29;20036;-77
2023/03/21 03:55:33;;;;;;;18.30;8.15;;;;;;;8.66;100.00;100674.47;5105160;29;20032;-76
2023/03/21 03:58:03;;;;;;;16.00;7.57;;;;;;;8.62;100.00;100670.25;5104176;29;20050;-76
2023/03/21 04:00:34;;;;;;;18.60;7.95;;;;;;;8.71;100.00;100672.59;5105519;29;20044;-76
2023/03/21 04:03:05;;;;;;;20.63;7.65;;;;;;;8.64;100.00;100665.84;5094910;29;20044;-76
2023/03/21 04:05:36;;;;;;;12.75;7.47;;;;;;;8.77;100.00;100662.03;5104982;29;20036;-76
2023/03/21 04:08:07;;;;;;;13.90;7.38;;;;;;;8.69;100.00;100665.75;5104074;29;20397;-76
2023/03/21 04:10:38;;;;;;;16.02;7.05;;;;;;;8.67;100.00;100664.91;5109432;29;20470;-76
2023/03/21 04:13:09;;;;;;;14.00;7.45;;;;;;;8.69;100.00;100661.38;5117774;29;20031;-77
2023/03/21 04:15:39;;;;;;;17.48;7.07;;;;;;;8.78;100.00;100661.13;5103287;29;20027;-76
2023/03/21 04:18:10;;;;;;;11.93;6.88;;;;;;;8.84;100.00;100658.34;5104146;29;20038;-77
2023/03/21 04:20:40;;;;;;;14.45;6.88;;;;;;;8.78;100.00;100666.34;5105017;29;20386;-76
2023/03/21 04:23:11;;;;;;;12.80;6.57;;;;;;;8.74;100.00;100664.69;5102416;29;20076;-73
2023/03/21 04:25:41;;;;;;;15.45;7.90;;;;;;;8.69;100.00;100665.75;5104110;29;20509;-76
2023/03/21 04:28:12;;;;;;;18.65;8.02;;;;;;;8.71;100.00;100666.56;5110222;29;20038;-76
2023/03/21 04:30:42;;;;;;;12.50;6.47;;;;;;;8.65;100.00;100670.16;5103116;29;20027;-76
2023/03/21 04:33:13;;;;;;;13.70;6.63;;;;;;;8.71;100.00;100667.38;5095278;29;20031;-75
2023/03/21 04:35:44;;;;;;;12.98;6.03;;;;;;;8.68;100.00;100670.06;5104504;29;20024;-76
2023/03/21 04:38:14;;;;;;;14.52;6.72;;;;;;;8.84;100.00;100660.97;5103603;29;20035;-76
2023/03/21 04:40:45;;;;;;;11.40;6.60;;;;;;;8.82;100.00;100662.75;5103649;29;20030;-77
2023/03/21 04:43:15;;;;;;;15.15;6.28;;;;;;;8.75;100.00;100655.16;5102500;29;20075;-77
2023/03/21 04:45:45;;;;;;;16.90;7.18;;;;;;;8.83;100.00;100654.03;5108114;29;20394;-76
2023/03/21 04:48:18;;;;;;;15.85;6.57;;;;;;;8.89;100.00;100658.22;5105693;29;20457;-76
2023/03/21 04:50:49;;;;;;;13.73;6.60;;;;;;;8.84;100.00;100654.88;5097636;29;20063;-77
2023/03/21 04:53:19;;;;;;;11.95;6.70;;;;;;;8.98;100.00;100658.84;5083491;29;20487;-77
2023/03/21 04:55:50;;;;;;;13.93;6.53;;;;;;;8.87;100.00;100660.88;5099556;29;20319;-76
2023/03/21 04:58:20;;;;;;;12.38;7.25;;;;;;;9.00;100.00;100654.44;5091709;29;20031;-76
2023/03/21 05:00:51;;;;;;;10.05;5.93;;;;;;;8.86;100.00;100656.56;5103271;29;20123;-77
2023/03/21 05:03:23;;;;;;;13.13;6.43;;;;;;;8.86;100.00;100656.56;5103407;29;20390;-77
2023/03/21 05:05:53;;;;;;;13.02;6.70;;;;;;;8.78;100.00;100655.94;5103716;29;20040;-76
2023/03/21 05:08:23;;;;;;;12.57;6.65;;;;;;;8.77;100.00;100653.34;5092773;29;20038;-76
2023/03/21 05:10:54;;;;;;;12.18;6.38;;;;;;;8.97;100.00;100651.03;5103905;29;20054;-76
2023/03/21 05:13:24;;;;;;;12.25;6.53;;;;;;;8.78;100.00;100658.53;5104923;29;20030;-77
2023/03/21 05:15:55;;;;;;;17.40;7.15;;;;;;;8.79;100.00;100656.75;5112164;29;20035;-77
2023/03/21 05:18:25;;;;;;;16.00;7.43;;;;;;;8.68;100.00;100659.66;5103241;29;20066;-77
2023/03/21 05:20:56;;;;;;;16.45;7.50;;;;;;;8.74;100.00;100659.47;5103478;29;20565;-77
2023/03/21 05:23:30;;;;;;;15.55;6.15;;;;;;;8.80;100.00;100664.56;5102241;29;20114;-76
2023/03/21 05:26:00;;;;;;;14.13;7.57;;;;;;;8.95;100.00;100664.13;5109042;29;20059;-76
2023/03/21 05:28:31;;;;;;;14.82;6.40;;;;;;;8.86;100.00;100661.78;5116192;29;20106;-77
2023/03/21 05:31:03;;;;;;;12.75;6.80;;;;;;;8.96;100.00;100665.84;5104118;29;20373;-76
2023/03/21 05:33:33;;;;;;;11.85;6.68;;;;;;;8.94;100.00;100665.03;5102345;29;20397;-76
2023/03/21 05:36:04;;;;;;;12.40;6.68;;;;;;;8.89;100.00;100663.44;5101628;29;20027;-76
2023/03/21 05:38:34;;;;;;;12.00;5.90;;;;;;;8.91;100.00;100664.25;5098597;29;20035;-76
2023/03/21 05:41:05;;;;;;;13.82;6.47;;;;;;;8.96;100.00;100652.81;5103896;29;20035;-76
2023/03/21 05:43:35;;;;;;;12.90;6.30;;;;;;;8.77;100.00;100656.81;5106428;29;20031;-76
2023/03/21 05:46:06;;;;;;;13.77;6.38;;;;;;;8.75;100.00;100658.59;5110504;29;20051;-76
2023/03/21 05:48:37;;;;;;;13.85;6.82;;;;;;;8.86;100.00;100658.31;5102726;29;20311;-76
2023/03/21 05:51:07;;;;;;;12.70;6.13;;;;;;;8.73;100.00;100659.53;5103447;29;20434;-75
2023/03/21 05:53:37;;;;;;;13.82;6.68;;;;;;;8.81;100.00;100665.38;5102097;29;20421;-76
2023/03/21 05:56:08;;;;;;;11.60;6.18;;;;;;;8.84;100.00;100657.47;5108203;29;20036;-77
2023/03/21 05:58:46;;;;;;;12.45;6.00;;;;;;;8.85;100.00;100657.47;5244055;27;20419;-76
2023/03/21 06:01:16;;;;;;;12.98;6.60;;;;;;;8.88;100.00;100657.38;5243644;28;20584;-75
2023/03/21 06:03:47;;;;;;;14.43;6.13;;;;;;;8.82;100.00;100661.88;5220377;28;20353;-75
2023/03/21 06:06:17;;;;;;;13.30;6.53;;;;;;;8.94;100.00;100653.75;5228976;28;20056;-76
2023/03/21 06:08:47;;;;;;;10.85;6.10;;;;;;;8.99;100.00;100647.50;5228710;28;20483;-75
2023/03/21 06:13:50;;;;;;;15.23;5.93;;;;;;;9.06;100.00;100651.63;5184447;28;20057;-70
2023/03/21 06:16:20;;;;;;;9.88;5.80;;;;;;;8.98;100.00;100645.81;5187767;28;20483;-72
2023/03/21 06:18:51;;;;;;;18.10;6.35;;;;;;;9.12;100.00;100648.88;5193179;28;20044;-72
2023/03/21 06:21:21;;;;;;;14.27;5.80;;;;;;;9.07;100.00;100650.75;5195598;28;20177;-71
2023/03/21 06:23:52;;;;;;;13.70;6.20;;;;;;;9.02;100.00;100650.03;5192901;28;20634;-71
2023/03/21 06:26:23;;;;;;;13.05;5.90;;;;;;;9.01;100.00;100650.94;5196878;28;20172;-71
2023/03/21 06:28:53;;;;;;;13.38;5.75;;;;;;;9.17;100.00;100649.59;5203688;28;20100;-71
2023/03/21 06:31:25;;;;;;;12.07;5.75;;;;;;;9.26;100.00;100646.72;5183253;28;20029;-71
2023/03/21 06:33:55;;;;;;;11.45;5.75;;;;;;;9.26;100.00;100639.75;5197798;28;20025;-72
2023/03/21 06:36:26;;;;;;;13.05;5.63;;;;;;;9.35;100.00;100643.84;5206761;28;20029;-72
2023/03/21 06:38:56;;;;;;;9.27;5.60;;;;;;;9.32;100.00;100649.16;5200142;28;20037;-72
2023/03/21 06:41:27;;;;;;;14.35;5.85;;;;;;;9.31;100.00;100642.22;5207377;28;20051;-71
2023/03/21 06:43:57;;;;;;;12.95;6.07;;;;;;;9.22;100.00;100650.31;5200469;28;20032;-72
2023/03/21 06:46:27;;;;;;;15.05;5.65;;;;;;;9.13;100.00;100648.81;5199294;28;20026;-72
2023/03/21 06:48:58;;;;;;;13.40;5.90;;;;;;;9.26;100.00;100649.31;5203385;28;20083;-72
2023/03/21 06:51:28;;;;;;;11.50;5.90;;;;;;;9.33;100.00;100656.91;5205938;28;20394;-72
2023/03/21 06:53:58;;;;;;;13.75;5.68;;;;;;;9.41;100.00;100648.88;5202918;28;20482;-72
2023/03/21 06:56:29;;;;;;;11.27;5.55;;;;;;;9.42;100.00;100653.19;5206552;28;20040;-72
2023/03/21 06:59:00;;;;;;;12.75;6.03;;;;;;;9.60;100.00;100656.09;5202512;28;20044;-72
2023/03/21 07:01:31;;;;;;;9.80;4.78;;;;;;;9.47;100.00;100659.13;5207198;28;20033;-72
2023/03/21 07:04:01;;;;;;;11.27;5.47;;;;;;;9.66;100.00;100655.91;5202643;28;20030;-72
2023/03/21 07:06:32;;;;;;;11.88;5.40;;;;;;;9.64;100.00;100652.50;5202291;28;20526;-72
2023/03/21 07:09:04;;;;;;;11.00;5.05;;;;;;;9.76;100.00;100657.34;5190807;28;20034;-71
2023/03/21 07:11:35;;;;;;;16.90;5.72;;;;;;;9.61;100.00;100654.34;5187576;28;20026;-71
2023/03/21 07:14:06;;;;;;;11.85;5.05;;;;;;;9.91;100.00;100656.00;5163699;28;20076;-72
2023/03/21 07:16:36;;;;;;;17.15;7.47;;;;;;;9.96;100.00;100654.13;5181672;28;20109;-71
2023/03/21 07:19:06;;;;;;;12.93;5.85;;;;;;;10.04;100.00;100646.91;5192740;28;20511;-72
2023/03/21 07:21:37;;;;;;;10.45;5.60;;;;;;;10.11;100.00;100658.88;5189246;28;20065;-72
2023/03/21 07:24:07;;;;;;;14.82;5.07;;;;;;;10.17;100.00;100656.91;5189099;28;20024;-71
2023/03/21 07:26:37;;;;;;;9.93;5.35;;;;;;;10.20;100.00;100648.13;5188945;28;20034;-72
2023/03/21 07:29:08;;;;;;;13.73;5.63;;;;;;;10.23;100.00;100654.13;5179833;28;20109;-72
2023/03/21 07:31:38;;;;;;;12.52;5.60;;;;;;;10.26;100.00;100655.75;5190530;28;20038;-72
2023/03/21 07:34:08;;;;;;;11.73;5.30;;;;;;;10.19;100.00;100651.66;5191217;28;20124;-72
2023/03/21 07:36:39;;;;;;;14.38;5.32;;;;;;;10.25;100.00;100651.44;5192628;28;20049;-72
2023/03/21 07:39:09;;;;;;;15.18;5.68;;;;;;;10.50;100.00;100650.56;5172133;28;20411;-72
2023/03/21 07:41:39;;;;;;;12.60;5.90;;;;;;;10.62;100.00;100646.66;5171250;28;20033;-72
2023/03/21 07:44:10;;;;;;;11.00;4.97;;;;;;;10.62;100.00;100642.31;5183825;28;20026;-71
2023/03/21 07:46:40;;;;;;;14.40;5.60;;;;;;;10.82;100.00;100644.25;5181884;28;20447;-71
2023/03/21 07:49:10;;;;;;;11.63;5.40;;;;;;;10.68;100.00;100649.09;5190972;28;20029;-72
2023/03/21 07:51:41;;;;;;;12.40;5.65;;;;;;;10.86;100.00;100645.84;5189240;28;20040;-72
2023/03/21 07:54:11;;;;;;;11.93;5.65;;;;;;;10.83;100.00;100649.41;5191317;28;20094;-72
2023/03/21 07:56:41;;;;;;;10.35;5.47;;;;;;;10.86;100.00;100646.66;5186465;28;20025;-71
2023/03/21 07:59:11;;;;;;;13.65;5.45;;;;;;;10.90;100.00;100643.06;5182932;28;20091;-72
2023/03/21 08:01:42;;;;;;;12.38;5.40;;;;;;;10.84;100.00;100652.88;5183716;28;20037;-71
2023/03/21 08:04:12;;;;;;;13.05;5.10;;;;;;;10.94;100.00;100639.44;5177978;28;20060;-72
2023/03/21 08:06:43;;;;;;;13.60;5.47;;;;;;;10.83;100.00;100648.56;5169424;28;20112;-71
2023/03/21 08:09:13;;;;;;;10.30;5.55;;;;;;;10.86;100.00;100644.06;5184406;28;20487;-71
2023/03/21 08:11:43;;;;;;;15.10;5.60;;;;;;;10.93;100.00;100642.06;5185599;28;20033;-70
2023/03/21 08:14:14;;;;;;;11.90;5.50;;;;;;;10.89;100.00;100646.56;5187943;28;20060;-72
2023/03/21 08:16:44;;;;;;;10.10;5.35;;;;;;;11.01;100.00;100640.06;5171280;28;20631;-71
2023/03/21 08:19:15;;;;;;;10.70;5.03;;;;;;;11.02;100.00;100647.81;5190858;28;20451;-71
2023/03/21 08:21:48;;;;;;;14.07;5.15;;;;;;;11.01;100.00;100645.28;5189562;28;20029;-71
2023/03/21 08:24:19;;;;;;;14.57;5.28;;;;;;;10.96;100.00;100641.97;5184140;28;20034;-69
2023/03/21 08:26:49;;;;;;;11.02;5.28;;;;;;;11.06;100.00;100642.44;5188490;28;20036;-70
2023/03/21 08:29:20;;;;;;;13.13;5.63;;;;;;;11.16;100.00;100643.81;5189745;28;20037;-69
2023/03/21 08:31:50;;;;;;;11.95;5.40;;;;;;;11.00;100.00;100648.81;5190402;28;20034;-70
2023/03/21 08:34:21;;;;;;;13.30;5.28;;;;;;;10.86;100.00;100640.59;5191580;28;20033;-70
2023/03/21 08:36:52;;;;;;;15.32;5.82;;;;;;;10.87;100.00;100640.53;5170441;28;20036;-70
2023/03/21 08:39:23;;;;;;;14.45;5.32;;;;;;;10.90;100.00;100640.44;5189074;28;20033;-71
2023/03/21 08:41:54;;;;;;;13.23;5.45;;;;;;;10.83;100.00;100635.50;5184098;28;20559;-71
2023/03/21 08:44:25;;;;;;;12.10;4.65;;;;;;;11.04;100.00;100631.19;5186332;28;20508;-71
2023/03/21 08:46:55;;;;;;;11.02;5.18;;;;;;;11.09;100.00;100629.25;5182673;28;20093;-71
2023/03/21 08:49:26;;;;;;;11.38;5.13;;;;;;;11.39;100.00;100638.56;5187711;28;20299;-70
2023/03/21 08:51:56;;;;;;;12.55;5.28;;;;;;;11.40;100.00;100635.03;5183872;28;20021;-71
2023/03/21 08:54:27;;;;;;;10.98;4.70;;;;;;;11.71;100.00;100634.75;5184436;28;20448;-70
2023/03/21 08:56:57;;;;;;;13.30;5.30;;;;;;;11.75;100.00;100642.44;5169551;28;20463;-71
2023/03/21 08:59:27;;;;;;;14.18;4.80;;;;;;;11.84;100.00;100631.59;5190360;28;20061;-72
2023/03/21 09:01:58;;;;;;;10.43;5.07;;;;;;;12.00;100.00;100630.06;5186129;28;20112;-72
2023/03/21 09:04:29;;;;;;;11.68;4.90;;;;;;;12.06;100.00;100636.81;5183926;28;20037;-71
2023/03/21 09:07:04;;;;;;;10.63;4.80;;;;;;;12.66;100.00;100631.66;5188674;28;20045;-71
2023/03/21 09:09:35;;;;;;;11.35;4.53;;;;;;;12.86;99.24;100635.13;5184300;28;20034;-72
2023/03/21 09:12:05;;;;;;;10.45;5.22;;;;;;;12.69;96.18;100639.38;5182221;28;20029;-70
2023/03/21 09:14:36;;;;;;;16.20;5.88;;;;;;;12.63;98.12;100632.63;5182340;28;20411;-71
2023/03/21 09:17:06;;;;;;;11.68;4.75;;;;;;;12.75;95.90;100637.34;5183530;28;20025;-71
2023/03/21 09:19:37;;;;;;;16.67;5.35;;;;;;;12.44;96.20;100639.56;5184923;28;20462;-70
2023/03/21 09:22:13;;;;;;;15.82;6.03;;;;;;;12.71;95.52;100635.78;5180175;28;20029;-70
2023/03/21 09:24:48;;;;;;;11.80;5.15;;;;;;;12.71;95.70;100635.78;5160950;28;20088;-71
2023/03/21 09:27:21;;;;;;;15.40;5.75;;;;;;;12.74;94.50;100633.00;5186092;28;20036;-71
2023/03/21 09:29:52;;;;;;;15.20;5.28;;;;;;;12.58;95.69;100637.22;5188766;28;20033;-71
2023/03/21 09:32:24;;;;;;;9.45;5.03;;;;;;;13.05;95.25;100639.50;5186612;28;20032;-71
2023/03/21 09:34:54;;;;;;;9.77;5.07;;;;;;;13.14;94.95;100632.97;5185272;28;20036;-71
2023/03/21 09:37:25;;;;;;;7.97;4.47;;;;;;;13.28;93.86;100636.72;5186426;28;20480;-71
2023/03/21 09:39:57;;;;;;;16.10;5.70;;;;;;;13.31;92.13;100636.56;5191920;28;20030;-74
2023/03/21 09:42:39;;;;;;;11.75;5.45;;;;;;;13.38;94.07;100637.97;5185187;28;20047;-74
2023/03/21 09:45:16;;;;;;;12.32;5.28;;;;;;;12.90;94.79;100634.06;5179781;28;20164;-74
2023/03/21 09:47:55;;;;;;;15.23;5.47;;;;;;;12.84;96.98;100629.06;5186749;28;20033;-74
2023/03/21 09:50:30;;;;;;;13.95;5.40;;;;;;;12.88;95.90;100629.78;5193837;28;20277;-74
2023/03/21 09:53:11;;;;;;;13.23;5.75;;;;;;;12.87;95.43;100626.31;5188250;28;20029;-74
2023/03/21 09:55:43;;;;;;;12.90;5.43;;;;;;;12.77;97.38;100630.25;5176443;28;20067;-74
2023/03/21 09:58:27;;;;;;;15.55;5.25;;;;;;;13.27;96.52;100628.88;5182683;28;20037;-73
2023/03/21 10:01:26;;;;;;;17.58;5.45;;;;;;;13.03;95.24;100627.38;5187559;28;20033;-73
2023/03/21 10:03:59;;;;;;;10.40;5.65;;;;;;;12.95;96.89;100632.09;5183216;28;20112;-74
2023/03/21 10:06:32;;;;;;;13.52;5.82;;;;;;;12.91;96.89;100631.34;5183585;28;20072;-74
2023/03/21 10:09:08;;;;;;;18.67;6.28;;;;;;;12.74;96.50;100627.78;5191345;28;20422;-73
2023/03/21 10:11:47;;;;;;;14.82;5.30;;;;;;;12.75;97.05;100632.09;5184130;28;20242;-74
2023/03/21 10:14:47;;;;;;;13.93;5.45;;;;;;;12.98;96.96;100621.47;5185817;28;20033;-74
2023/03/21 10:17:39;;;;;;;10.93;5.35;;;;;;;12.74;96.65;100626.91;5179129;28;20022;-74
2023/03/21 10:20:17;;;;;;;12.18;5.20;;;;;;;12.75;95.14;100618.13;5190327;28;20495;-75
2023/03/21 10:22:51;;;;;;;14.00;5.40;;;;;;;12.87;97.67;100618.44;5193291;28;20513;-75
2023/03/21 10:25:36;;;;;;;14.30;5.68;;;;;;;12.97;97.47;100618.94;5170617;28;20041;-74
2023/03/21 10:28:14;;;;;;;10.18;5.32;;;;;;;13.04;96.93;100623.84;5184165;28;20234;-74
2023/03/21 10:30:55;;;;;;;14.55;6.45;;;;;;;13.31;96.64;100617.31;5192832;28;20060;-75
2023/03/21 10:33:32;;;;;;;14.68;4.97;;;;;;;13.19;95.94;100616.09;5188629;28;20376;-74
2023/03/21 10:36:11;;;;;;;11.07;5.22;;;;;;;13.12;97.66;100613.84;5185017;28;20021;-74
2023/03/21 10:38:48;;;;;;;14.48;4.85;;;;;;;13.28;96.10;100615.72;5186977;28;20060;-74
2023/03/21 10:41:19;;;;;;;12.27;5.72;;;;;;;13.42;96.29;100613.28;5187043;28;20030;-74
2023/03/21 10:44:15;;;;;;;16.92;5.07;;;;;;;13.77;96.07;100606.38;5187322;28;20108;-74
2023/03/21 10:46:50;;;;;;;14.38;5.07;;;;;;;13.61;93.86;100605.41;5185031;28;20024;-73
2023/03/21 10:49:20;;;;;;;11.02;4.63;;;;;;;13.64;94.04;100600.84;5194274;28;20109;-75
2023/03/21 10:51:55;;;;;;;16.42;5.20;;;;;;;13.82;94.74;100604.38;5192340;28;20104;-74
2023/03/21 10:54:31;;;;;;;11.32;4.75;;;;;;;13.53;95.91;100591.75;5191802;28;20517;-74
2023/03/21 10:57:07;;;;;;;10.63;4.82;;;;;;;13.82;97.11;100596.47;5191360;28;20300;-75
2023/03/21 10:59:43;;;;;;;11.40;4.88;;;;;;;13.96;96.54;100591.41;5198620;28;20044;-74
2023/03/21 11:02:34;;;;;;;12.02;4.60;;;;;;;13.95;96.08;100584.47;5183933;28;20030;-74
2023/03/21 11:05:17;;;;;;;11.57;4.53;;;;;;;14.02;93.21;100581.47;5185159;28;20488;-74
2023/03/21 11:07:57;;;;;;;9.50;4.25;;;;;;;14.03;92.84;100579.66;5191446;28;20100;-74
2023/03/21 11:10:29;;;;;;;11.35;4.10;;;;;;;14.16;91.44;100579.03;5195495;28;20033;-74
2023/03/21 11:13:16;;;;;;;12.38;5.03;;;;;;;14.10;93.05;100579.28;5186417;28;20036;-74
2023/03/21 11:16:02;;;;;;;16.23;5.28;;;;;;;14.30;91.25;100578.31;5183993;28;20029;-75
2023/03/21 11:18:38;;;;;;;;;;;;;;;13.84;89.73;100581.50;5192601;28;20022;-74
2023/03/21 11:21:12;;;;;;;11.43;5.00;;;;;;;14.06;90.14;100575.13;5193052;28;20411;-73
2023/03/21 11:23:46;;;;;;;11.43;4.82;;;;;;;13.96;90.13;100580.91;5194348;28;20435;-74
2023/03/21 11:26:31;;;;;;;15.82;5.43;;;;;;;13.92;90.46;100574.94;5189684;28;20025;-74
2023/03/21 11:29:23;;;;;;;12.30;4.77;;;;;;;14.11;91.76;100567.00;5183575;28;20025;-75
2023/03/21 11:31:58;;;;;;;9.73;4.68;;;;;;;14.29;93.56;100560.84;5194157;28;20064;-75
2023/03/21 11:34:37;;;;;;;15.50;5.57;;;;;;;14.36;93.53;100560.47;5187800;28;20021;-74
2023/03/21 11:37:20;;;;;;;10.52;4.65;;;;;;;14.44;89.73;100560.91;5187665;28;20060;-75
2023/03/21 11:39:55;;;;;;;12.60;4.85;;;;;;;14.30;89.69;100557.28;5194083;28;20121;-75
2023/03/21 11:42:31;;;;;;;11.90;5.38;;;;;;;14.21;89.33;100563.00;5199988;28;20034;-75
2023/03/21 11:45:26;;;;;;;13.15;4.97;;;;;;;14.23;88.24;100563.81;5185902;28;20045;-74
2023/03/21 11:47:59;;;;;;;11.95;4.47;;;;;;;14.02;89.11;100563.06;5191007;28;20041;-74
2023/03/21 11:50:40;;;;;;;13.25;4.68;;;;;;;14.15;87.40;100560.66;5194189;28;20044;-75